Time;durP1;ratioP1;P1;durP2;ratioP2;P2;SDS_P1;SDS_P2;PMS_P1;PMS_P2;Temp;Humidity;BMP_temperature;BMP_pressure;BME280_temperature;BME280_humidity;BME280_pressure;Samples;Min_cycle;Max_cycle;Signal;HPM_P1;HPM_P2
2023/09/16 00:01:04;;;;;;;13.65;4.00;;;;;;;;;;4981639;28;20022;-68
2023/09/16 00:03:32;;;;;;;13.38;4.85;;;;;;;;;;4976867;28;20041;-68
2023/09/16 00:05:58;;;;;;;15.15;5.05;;;;;;;;;;4981243;28;20138;-68
2023/09/16 00:08:24;;;;;;;12.23;4.15;;;;;;;;;;4978060;28;20030;-68
2023/09/16 00:10:51;;;;;;;12.88;4.60;;;;;;;;;;4980094;28;20049;-68
2023/09/16 00:13:17;;;;;;;12.95;4.10;;;;;;;;;;4979969;28;20455;-68
2023/09/16 00:15:48;;;;;;;14.07;4.88;;;;;;;;;;4976176;28;20041;-68
2023/09/16 00:18:15;;;;;;;15.73;4.65;;;;;;;;;;4978882;28;20037;-68
2023/09/16 00:20:41;;;;;;;12.48;4.78;;;;;;;;;;4976066;28;20759;-68
2023/09/16 00:23:07;;;;;;;15.95;4.90;;;;;;;;;;4982629;28;20598;-68
2023/09/16 00:25:34;;;;;;;14.10;4.80;;;;;;;;;;4980326;28;20148;-68
2023/09/16 00:28:00;;;;;;;18.08;5.10;;;;;;;;;;4975297;28;20057;-68
2023/09/16 00:30:26;;;;;;;14.60;5.03;;;;;;;;;;4981015;28;20451;-68
2023/09/16 00:32:52;;;;;;;14.32;4.95;;;;;;;;;;4985265;28;20029;-68
2023/09/16 00:35:19;;;;;;;16.98;5.15;;;;;;;;;;4988712;28;20625;-68
2023/09/16 00:37:46;;;;;;;13.10;5.10;;;;;;;;;;4985349;28;20030;-68
2023/09/16 00:40:13;;;;;;;13.38;4.80;;;;;;;;;;4989703;28;20034;-67
2023/09/16 00:42:40;;;;;;;11.23;4.07;;;;;;;;;;4981583;28;20038;-70
2023/09/16 00:45:10;;;;;;;12.18;4.32;;;;;;;;;;4984610;28;20082;-70
2023/09/16 00:47:42;;;;;;;18.17;5.68;;;;;;;;;;4981421;28;20026;-70
2023/09/16 00:50:09;;;;;;;17.58;5.45;;;;;;;;;;4982716;28;20034;-70
2023/09/16 00:52:38;;;;;;;17.80;5.82;;;;;;;;;;4976967;28;20544;-70
2023/09/16 00:55:04;;;;;;;15.60;4.53;;;;;;;;;;4981398;28;20395;-70
2023/09/16 00:57:32;;;;;;;14.15;4.47;;;;;;;;;;4978589;28;20036;-70
2023/09/16 00:59:58;;;;;;;15.43;5.03;;;;;;;;;;4983110;28;20046;-71
2023/09/16 01:02:24;;;;;;;11.55;4.18;;;;;;;;;;4977240;28;20026;-71
2023/09/16 01:04:51;;;;;;;15.70;4.63;;;;;;;;;;4986643;28;20026;-71
2023/09/16 01:07:17;;;;;;;13.20;5.00;;;;;;;;;;4990530;28;20059;-70
2023/09/16 01:09:44;;;;;;;16.60;5.45;;;;;;;;;;4989328;28;20627;-70
2023/09/16 01:12:10;;;;;;;18.08;5.95;;;;;;;;;;4985419;28;20535;-69
2023/09/16 01:14:37;;;;;;;16.40;5.05;;;;;;;;;;4986637;28;20309;-70
2023/09/16 01:17:09;;;;;;;19.52;5.82;;;;;;;;;;4991423;28;20236;-71
2023/09/16 01:19:56;;;;;;;18.85;5.53;;;;;;;;;;4985228;28;20096;-71
2023/09/16 01:22:23;;;;;;;16.88;5.55;;;;;;;;;;4984294;28;20145;-71
2023/09/16 01:24:52;;;;;;;18.13;5.43;;;;;;;;;;4991895;28;20258;-71
2023/09/16 01:27:19;;;;;;;14.52;5.35;;;;;;;;;;4991692;28;20113;-71
2023/09/16 01:29:46;;;;;;;15.45;5.80;;;;;;;;;;4985568;28;20041;-71
2023/09/16 01:32:14;;;;;;;16.30;5.63;;;;;;;;;;4991278;28;20018;-71
2023/09/16 01:34:41;;;;;;;18.15;5.30;;;;;;;;;;4987850;28;20533;-70
2023/09/16 01:37:10;;;;;;;13.60;5.00;;;;;;;;;;4991867;28;20042;-70
2023/09/16 01:39:38;;;;;;;13.68;5.05;;;;;;;;;;5002159;28;20129;-70
2023/09/16 01:42:04;;;;;;;12.15;4.22;;;;;;;;;;4987081;28;20362;-70
2023/09/16 01:44:31;;;;;;;16.27;5.15;;;;;;;;;;4982417;28;20433;-69
2023/09/16 01:46:57;;;;;;;14.45;5.10;;;;;;;;;;4989189;28;20053;-70
2023/09/16 01:49:24;;;;;;;15.70;5.25;;;;;;;;;;4987798;28;20022;-70
2023/09/16 01:51:51;;;;;;;16.40;5.38;;;;;;;;;;4990803;28;20115;-70
2023/09/16 01:54:17;;;;;;;18.15;5.25;;;;;;;;;;4993678;28;20312;-70
2023/09/16 01:56:45;;;;;;;19.50;5.28;;;;;;;;;;4987491;28;20042;-70
2023/09/16 01:59:11;;;;;;;14.10;4.47;;;;;;;;;;4986088;28;20130;-70
2023/09/16 02:01:37;;;;;;;17.60;5.43;;;;;;;;;;4980179;28;20266;-70
2023/09/16 02:04:03;;;;;;;12.88;4.53;;;;;;;;;;4987024;28;20030;-70
2023/09/16 02:06:29;;;;;;;13.98;4.13;;;;;;;;;;4987244;28;20087;-70
2023/09/16 02:08:56;;;;;;;12.98;4.50;;;;;;;;;;4986272;28;20555;-70
2023/09/16 02:11:22;;;;;;;18.23;5.10;;;;;;;;;;4985654;28;20038;-70
2023/09/16 02:13:48;;;;;;;14.40;4.40;;;;;;;;;;4987832;28;20040;-70
2023/09/16 02:16:14;;;;;;;13.48;4.90;;;;;;;;;;4984054;28;20048;-70
2023/09/16 02:18:40;;;;;;;13.40;4.22;;;;;;;;;;4983452;28;20160;-71
2023/09/16 02:21:07;;;;;;;12.88;3.83;;;;;;;;;;4984161;28;20046;-71
2023/09/16 02:23:34;;;;;;;13.43;4.50;;;;;;;;;;4982228;28;20222;-70
2023/09/16 02:26:01;;;;;;;13.65;4.50;;;;;;;;;;4981206;28;20493;-71
2023/09/16 02:28:27;;;;;;;12.73;4.40;;;;;;;;;;4977735;28;20030;-70
2023/09/16 02:30:53;;;;;;;13.77;4.65;;;;;;;;;;4983990;28;20041;-72
2023/09/16 02:33:20;;;;;;;13.02;4.90;;;;;;;;;;4987222;28;20018;-72
2023/09/16 02:35:46;;;;;;;12.52;4.07;;;;;;;;;;4984687;28;20141;-70
2023/09/16 02:38:12;;;;;;;14.48;4.95;;;;;;;;;;4984733;28;20029;-70
2023/09/16 02:40:42;;;;;;;12.88;4.20;;;;;;;;;;4981497;28;20322;-72
2023/09/16 02:43:09;;;;;;;15.77;4.47;;;;;;;;;;4983712;28;20042;-70
2023/09/16 02:45:41;;;;;;;13.35;4.78;;;;;;;;;;4979616;28;20030;-69
2023/09/16 02:48:08;;;;;;;12.68;4.22;;;;;;;;;;4989218;28;20037;-70
2023/09/16 02:50:34;;;;;;;14.68;5.20;;;;;;;;;;4981212;28;20420;-70
2023/09/16 02:53:00;;;;;;;14.48;5.05;;;;;;;;;;4983522;28;20038;-70
2023/09/16 02:55:27;;;;;;;12.77;4.35;;;;;;;;;;4975537;28;20137;-70
2023/09/16 02:57:54;;;;;;;12.73;4.68;;;;;;;;;;4983904;28;20029;-70
2023/09/16 03:00:20;;;;;;;12.95;4.15;;;;;;;;;;4982279;28;20686;-72
2023/09/16 03:02:48;;;;;;;16.75;4.18;;;;;;;;;;4986626;28;20030;-72
2023/09/16 03:05:14;;;;;;;13.45;4.78;;;;;;;;;;4980148;28;20057;-71
2023/09/16 03:07:41;;;;;;;14.40;4.90;;;;;;;;;;4980381;28;20852;-72
2023/09/16 03:10:08;;;;;;;18.88;5.03;;;;;;;;;;4984387;28;20037;-70
2023/09/16 03:12:34;;;;;;;16.02;5.07;;;;;;;;;;4976814;28;20506;-70
2023/09/16 03:15:00;;;;;;;18.48;5.60;;;;;;;;;;4981716;28;20038;-70
2023/09/16 03:17:26;;;;;;;17.20;5.07;;;;;;;;;;4978320;28;20030;-72
2023/09/16 03:19:53;;;;;;;14.65;5.03;;;;;;;;;;4984329;28;20036;-71
2023/09/16 03:22:19;;;;;;;16.77;5.30;;;;;;;;;;4983879;28;20030;-72
2023/09/16 03:24:45;;;;;;;15.80;5.28;;;;;;;;;;4985066;28;20366;-72
2023/09/16 03:27:11;;;;;;;14.00;4.70;;;;;;;;;;4981467;28;20036;-71
2023/09/16 03:29:38;;;;;;;13.38;4.30;;;;;;;;;;4977468;28;20033;-71
2023/09/16 03:32:04;;;;;;;14.15;5.10;;;;;;;;;;4985761;28;20037;-71
2023/09/16 03:34:30;;;;;;;16.58;4.50;;;;;;;;;;4976472;28;20238;-71
2023/09/16 03:36:56;;;;;;;13.00;4.22;;;;;;;;;;4987550;28;20032;-71
2023/09/16 03:39:22;;;;;;;15.77;4.85;;;;;;;;;;4983358;28;20763;-71
2023/09/16 03:41:48;;;;;;;16.52;4.28;;;;;;;;;;4982787;28;20065;-71
2023/09/16 03:44:15;;;;;;;21.83;5.22;;;;;;;;;;4992015;28;20064;-71
2023/09/16 03:46:41;;;;;;;17.05;4.20;;;;;;;;;;4985148;28;20610;-71
2023/09/16 03:49:07;;;;;;;12.70;3.15;;;;;;;;;;4984035;28;20060;-71
2023/09/16 03:51:37;;;;;;;14.77;3.50;;;;;;;;;;4979040;28;20014;-71
2023/09/16 03:54:04;;;;;;;17.23;3.72;;;;;;;;;;4981134;28;20042;-71
2023/09/16 03:56:30;;;;;;;14.23;3.88;;;;;;;;;;4978967;28;20330;-71
2023/09/16 03:58:56;;;;;;;15.35;3.13;;;;;;;;;;4984516;28;20066;-71
2023/09/16 04:01:22;;;;;;;11.65;3.20;;;;;;;;;;4980225;28;20219;-71
2023/09/16 04:03:49;;;;;;;15.40;4.13;;;;;;;;;;4980283;28;20026;-71
2023/09/16 04:06:15;;;;;;;16.08;3.92;;;;;;;;;;4982274;28;20125;-71
2023/09/16 04:08:41;;;;;;;12.30;3.65;;;;;;;;;;4982173;28;20430;-70
2023/09/16 04:11:08;;;;;;;14.30;4.47;;;;;;;;;;4988782;28;20097;-70
2023/09/16 04:13:34;;;;;;;12.52;3.30;;;;;;;;;;4979627;28;20779;-70
2023/09/16 04:16:00;;;;;;;12.43;3.53;;;;;;;;;;4980767;28;20038;-70
2023/09/16 04:18:26;;;;;;;17.85;4.93;;;;;;;;;;4981933;28;20627;-71
2023/09/16 04:20:55;;;;;;;11.02;3.17;;;;;;;;;;4984169;28;20026;-70
2023/09/16 04:23:21;;;;;;;15.85;4.45;;;;;;;;;;4979918;28;20564;-69
2023/09/16 04:25:53;;;;;;;14.07;4.03;;;;;;;;;;4985819;28;20026;-70
2023/09/16 04:28:19;;;;;;;16.40;4.00;;;;;;;;;;4980895;28;20045;-69
2023/09/16 04:30:49;;;;;;;16.92;4.50;;;;;;;;;;4976150;28;20161;-70
2023/09/16 04:33:19;;;;;;;15.13;4.47;;;;;;;;;;4982735;28;20489;-69
2023/09/16 04:35:46;;;;;;;18.20;4.38;;;;;;;;;;4974655;28;20066;-73
2023/09/16 04:38:12;;;;;;;18.10;3.80;;;;;;;;;;4982481;28;20501;-70
2023/09/16 04:40:39;;;;;;;18.17;4.70;;;;;;;;;;4973354;28;20030;-71
2023/09/16 04:43:05;;;;;;;15.35;4.70;;;;;;;;;;4982646;28;20038;-71
2023/09/16 04:45:31;;;;;;;14.57;4.07;;;;;;;;;;4981478;28;20101;-72
2023/09/16 04:47:57;;;;;;;15.50;3.97;;;;;;;;;;4983898;28;20096;-71
2023/09/16 04:50:25;;;;;;;13.95;4.30;;;;;;;;;;4975119;28;20338;-71
2023/09/16 04:52:51;;;;;;;11.93;3.78;;;;;;;;;;4979371;28;20243;-71
2023/09/16 04:55:17;;;;;;;17.85;4.00;;;;;;;;;;4977012;28;20041;-71
2023/09/16 04:57:43;;;;;;;17.52;4.68;;;;;;;;;;4976652;28;20478;-71
2023/09/16 05:00:10;;;;;;;14.38;3.45;;;;;;;;;;4979041;28;20034;-71
2023/09/16 05:02:36;;;;;;;16.05;4.40;;;;;;;;;;4978734;28;20640;-72
2023/09/16 05:05:02;;;;;;;15.00;3.60;;;;;;;;;;4980538;28;20328;-71
2023/09/16 05:07:28;;;;;;;17.30;4.07;;;;;;;;;;4981878;28;20029;-71
2023/09/16 05:09:56;;;;;;;18.30;4.28;;;;;;;;;;4976265;28;20053;-71
2023/09/16 05:12:22;;;;;;;16.27;4.07;;;;;;;;;;4984371;28;20061;-70
2023/09/16 05:14:49;;;;;;;15.25;3.88;;;;;;;;;;4978916;28;20547;-70
2023/09/16 05:17:15;;;;;;;12.60;3.55;;;;;;;;;;4982159;28;20431;-70
2023/09/16 05:19:41;;;;;;;16.15;3.67;;;;;;;;;;4977751;28;20077;-71
2023/09/16 05:22:08;;;;;;;15.90;4.28;;;;;;;;;;4985889;28;20042;-70
2023/09/16 05:24:34;;;;;;;19.13;4.22;;;;;;;;;;4977693;28;20440;-71
2023/09/16 05:27:00;;;;;;;20.42;5.28;;;;;;;;;;4981794;28;20046;-70
2023/09/16 05:29:26;;;;;;;17.55;4.63;;;;;;;;;;4983003;28;20034;-71
2023/09/16 05:31:53;;;;;;;20.85;5.07;;;;;;;;;;4980489;28;20050;-70
2023/09/16 05:34:19;;;;;;;23.67;5.72;;;;;;;;;;4983699;28;20076;-70
2023/09/16 05:36:46;;;;;;;17.58;4.85;;;;;;;;;;4980266;28;20230;-72
2023/09/16 05:39:12;;;;;;;19.95;4.88;;;;;;;;;;4984807;28;20698;-72
2023/09/16 05:41:38;;;;;;;20.95;5.30;;;;;;;;;;4978350;28;20041;-72
2023/09/16 05:44:04;;;;;;;21.33;5.10;;;;;;;;;;4981011;28;20676;-72
2023/09/16 05:46:31;;;;;;;24.17;5.93;;;;;;;;;;4976107;28;20061;-71
2023/09/16 05:49:06;;;;;;;26.80;5.70;;;;;;;;;;4976257;28;20038;-72
2023/09/16 05:51:35;;;;;;;35.95;6.07;;;;;;;;;;4975481;28;20029;-71
2023/09/16 05:54:01;;;;;;;23.30;4.85;;;;;;;;;;4987978;28;20034;-71
2023/09/16 05:56:28;;;;;;;30.05;5.50;;;;;;;;;;4982671;28;20882;-71
2023/09/16 05:58:54;;;;;;;30.38;5.82;;;;;;;;;;4987525;28;20057;-71
2023/09/16 06:01:20;;;;;;;44.35;7.28;;;;;;;;;;4981686;28;20033;-71
2023/09/16 06:03:47;;;;;;;46.05;7.38;;;;;;;;;;4986017;28;20332;-70
2023/09/16 06:06:13;;;;;;;38.58;6.65;;;;;;;;;;4986040;28;20169;-70
2023/09/16 06:08:39;;;;;;;36.80;6.32;;;;;;;;;;4984011;28;20836;-70
2023/09/16 06:11:05;;;;;;;37.92;6.85;;;;;;;;;;4983984;28;20050;-70
2023/09/16 06:13:31;;;;;;;41.30;6.80;;;;;;;;;;4982342;28;20159;-71
2023/09/16 06:15:57;;;;;;;43.08;7.00;;;;;;;;;;4987258;28;20587;-71
2023/09/16 06:18:23;;;;;;;43.03;7.43;;;;;;;;;;4984724;28;20515;-71
2023/09/16 06:20:50;;;;;;;44.60;7.53;;;;;;;;;;4987261;28;20026;-72
2023/09/16 06:23:16;;;;;;;43.38;7.28;;;;;;;;;;4984400;28;20819;-71
2023/09/16 06:25:42;;;;;;;45.42;7.80;;;;;;;;;;4982398;28;20030;-72
2023/09/16 06:28:08;;;;;;;43.30;7.28;;;;;;;;;;4981503;28;20027;-71
2023/09/16 06:30:34;;;;;;;41.28;7.00;;;;;;;;;;4972827;28;20037;-72
2023/09/16 06:33:00;;;;;;;49.58;8.15;;;;;;;;;;4983126;28;20036;-72
2023/09/16 06:35:26;;;;;;;33.10;6.03;;;;;;;;;;4979082;28;20054;-71
2023/09/16 06:37:53;;;;;;;26.95;5.47;;;;;;;;;;4985607;28;20041;-71
2023/09/16 06:40:19;;;;;;;39.28;6.85;;;;;;;;;;4980788;28;20481;-71
2023/09/16 06:42:45;;;;;;;32.25;5.57;;;;;;;;;;4983600;28;20045;-71
2023/09/16 06:45:15;;;;;;;32.40;5.75;;;;;;;;;;4997389;28;20175;-71
2023/09/16 06:47:41;;;;;;;39.55;6.70;;;;;;;;;;4982486;28;20391;-72
2023/09/16 06:50:08;;;;;;;46.35;6.57;;;;;;;;;;4981447;28;20077;-72
2023/09/16 06:52:35;;;;;;;34.80;6.38;;;;;;;;;;4977737;28;20026;-72
2023/09/16 06:55:01;;;;;;;28.85;5.35;;;;;;;;;;4981166;28;20076;-72
2023/09/16 06:57:27;;;;;;;27.50;4.80;;;;;;;;;;4983558;28;20243;-73
2023/09/16 06:59:53;;;;;;;29.48;5.60;;;;;;;;;;4981145;28;20519;-71
2023/09/16 07:02:22;;;;;;;22.10;4.10;;;;;;;;;;4989698;28;20553;-71
2023/09/16 07:04:48;;;;;;;26.00;5.47;;;;;;;;;;4982619;28;20037;-71
2023/09/16 07:07:14;;;;;;;26.27;5.68;;;;;;;;;;4988003;28;20085;-71
2023/09/16 07:09:40;;;;;;;28.77;5.13;;;;;;;;;;4981805;28;20350;-72
2023/09/16 07:12:07;;;;;;;44.08;7.40;;;;;;;;;;4981717;28;20440;-70
2023/09/16 07:14:36;;;;;;;30.73;6.88;;;;;;;;;;4981833;28;20346;-70
2023/09/16 07:17:02;;;;;;;35.10;5.85;;;;;;;;;;4982726;28;20338;-70
2023/09/16 07:19:28;;;;;;;30.73;6.28;;;;;;;;;;4981254;28;20275;-70
2023/09/16 07:21:54;;;;;;;28.48;5.18;;;;;;;;;;4986427;28;20042;-73
2023/09/16 07:24:21;;;;;;;27.00;5.55;;;;;;;;;;4982907;28;20456;-72
2023/09/16 07:26:47;;;;;;;19.38;4.80;;;;;;;;;;4983985;28;20027;-71
2023/09/16 07:29:13;;;;;;;22.35;5.82;;;;;;;;;;4982623;28;20246;-71
2023/09/16 07:31:39;;;;;;;22.92;6.07;;;;;;;;;;4976657;28;20045;-71
2023/09/16 07:34:06;;;;;;;29.35;6.30;;;;;;;;;;4986393;28;20029;-70
2023/09/16 07:36:32;;;;;;;25.50;5.53;;;;;;;;;;4984462;28;20137;-70
2023/09/16 07:38:58;;;;;;;26.83;5.90;;;;;;;;;;4981924;28;20037;-71
2023/09/16 07:41:24;;;;;;;35.08;6.78;;;;;;;;;;4976706;28;20045;-70
2023/09/16 07:43:50;;;;;;;25.90;5.85;;;;;;;;;;4987496;28;20472;-72
2023/09/16 07:46:16;;;;;;;20.77;5.53;;;;;;;;;;4981949;28;20030;-70
2023/09/16 07:48:42;;;;;;;21.02;6.63;;;;;;;;;;4981812;28;20052;-70
2023/09/16 07:51:08;;;;;;;20.13;5.47;;;;;;;;;;4978902;28;20033;-70
2023/09/16 07:53:35;;;;;;;18.85;5.05;;;;;;;;;;4983181;28;20125;-70
2023/09/16 07:56:01;;;;;;;17.63;4.95;;;;;;;;;;4983974;28;20109;-71
2023/09/16 07:58:27;;;;;;;16.63;5.35;;;;;;;;;;4979317;28;20249;-70
2023/09/16 08:00:53;;;;;;;18.63;5.43;;;;;;;;;;4978247;28;20120;-72
2023/09/16 08:03:20;;;;;;;18.63;5.28;;;;;;;;;;4979845;28;20336;-70
2023/09/16 08:05:46;;;;;;;21.02;4.82;;;;;;;;;;4975521;28;20023;-71
2023/09/16 08:08:12;;;;;;;16.70;4.93;;;;;;;;;;4981198;28;20041;-71
2023/09/16 08:10:38;;;;;;;22.67;5.68;;;;;;;;;;4976631;28;20144;-71
2023/09/16 08:13:04;;;;;;;17.30;5.13;;;;;;;;;;4977515;28;20042;-70
2023/09/16 08:15:30;;;;;;;19.58;5.30;;;;;;;;;;4974946;28;20026;-71
2023/09/16 08:17:57;;;;;;;17.92;5.03;;;;;;;;;;4978762;28;20040;-70
2023/09/16 08:20:24;;;;;;;19.77;5.00;;;;;;;;;;4976447;28;20026;-71
2023/09/16 08:22:50;;;;;;;26.25;6.38;;;;;;;;;;4977379;28;20054;-71
2023/09/16 08:25:16;;;;;;;25.73;7.13;;;;;;;;;;4979902;28;20113;-72
2023/09/16 08:27:43;;;;;;;23.73;5.80;;;;;;;;;;4976426;28;20477;-72
2023/09/16 08:30:09;;;;;;;19.17;5.05;;;;;;;;;;4981021;28;20455;-72
2023/09/16 08:32:38;;;;;;;20.48;4.57;;;;;;;;;;4976782;28;20439;-72
2023/09/16 08:35:05;;;;;;;31.42;5.97;;;;;;;;;;4978578;28;20445;-72
2023/09/16 08:37:31;;;;;;;22.67;5.43;;;;;;;;;;4980642;28;20316;-72
2023/09/16 08:39:57;;;;;;;16.77;4.63;;;;;;;;;;4979924;28;20030;-72
2023/09/16 08:42:29;;;;;;;24.30;5.18;;;;;;;;;;4976245;28;20128;-72
2023/09/16 08:44:56;;;;;;;18.95;5.53;;;;;;;;;;4978017;28;20614;-72
2023/09/16 08:47:40;;;;;;;18.00;4.70;;;;;;;;;;4977380;28;20025;-71
2023/09/16 08:50:08;;;;;;;19.52;4.88;;;;;;;;;;4977360;28;20396;-72
2023/09/16 08:52:49;;;;;;;19.90;5.28;;;;;;;;;;4979792;28;20154;-71
2023/09/16 08:55:15;;;;;;;20.02;4.43;;;;;;;;;;4982316;28;20708;-71
2023/09/16 08:58:02;;;;;;;21.60;4.68;;;;;;;;;;4977894;28;20026;-71
2023/09/16 09:00:28;;;;;;;15.57;4.68;;;;;;;;;;4976333;28;20132;-71
2023/09/16 09:02:55;;;;;;;17.05;4.50;;;;;;;;;;4979291;28;20614;-71
2023/09/16 09:05:23;;;;;;;19.85;4.85;;;;;;;;;;4976960;28;20037;-71
2023/09/16 09:07:49;;;;;;;20.63;4.53;;;;;;;;;;4978795;28;20080;-71
2023/09/16 09:10:15;;;;;;;21.90;5.68;;;;;;;;;;4976796;28;20050;-71
2023/09/16 09:12:42;;;;;;;15.77;4.50;;;;;;;;;;4976290;28;20049;-70
2023/09/16 09:15:10;;;;;;;21.75;5.15;;;;;;;;;;4979254;28;20030;-71
2023/09/16 09:17:41;;;;;;;18.35;4.40;;;;;;;;;;4974135;28;20037;-71
2023/09/16 09:20:28;;;;;;;18.30;5.30;;;;;;;;;;4978230;28;20574;-73
2023/09/16 09:22:54;;;;;;;20.65;5.10;;;;;;;;;;4979552;28;20811;-71
2023/09/16 09:25:22;;;;;;;21.52;5.28;;;;;;;;;;4977735;28;20026;-73
2023/09/16 09:27:49;;;;;;;22.00;5.25;;;;;;;;;;4980813;28;20026;-71
2023/09/16 09:30:15;;;;;;;21.55;4.95;;;;;;;;;;4979961;28;20041;-71
2023/09/16 09:32:47;;;;;;;28.40;5.50;;;;;;;;;;4981887;28;20789;-71
2023/09/16 09:35:14;;;;;;;26.95;5.55;;;;;;;;;;4982229;28;20322;-71
2023/09/16 09:37:40;;;;;;;25.95;5.15;;;;;;;;;;4996321;28;21353;-71
2023/09/16 09:40:08;;;;;;;23.63;5.10;;;;;;;;;;4982254;28;20033;-70
2023/09/16 09:42:40;;;;;;;21.73;5.00;;;;;;;;;;4978683;28;20117;-71
2023/09/16 09:45:06;;;;;;;20.38;5.15;;;;;;;;;;4981096;28;20415;-70
2023/09/16 09:47:34;;;;;;;23.13;5.28;;;;;;;;;;4982894;28;20282;-71
2023/09/16 09:50:00;;;;;;;24.17;5.80;;;;;;;;;;4983941;28;20590;-71
2023/09/16 09:52:27;;;;;;;19.30;4.70;;;;;;;;;;4977524;28;20040;-71
2023/09/16 09:54:53;;;;;;;25.20;5.75;;;;;;;;;;4982701;28;20033;-72
2023/09/16 09:57:19;;;;;;;21.63;4.80;;;;;;;;;;4981517;28;20297;-71
2023/09/16 09:59:46;;;;;;;21.73;5.38;;;;;;;;;;4979252;28;20022;-71
2023/09/16 10:02:12;;;;;;;24.30;5.35;;;;;;;;;;4981137;28;20029;-71
2023/09/16 10:04:38;;;;;;;17.88;5.38;;;;;;;;;;4978004;28;20041;-73
2023/09/16 10:07:04;;;;;;;26.80;6.00;;;;;;;;;;4984789;28;20026;-72
2023/09/16 10:09:30;;;;;;;22.90;5.45;;;;;;;;;;4978001;28;20041;-72
2023/09/16 10:11:57;;;;;;;22.52;6.05;;;;;;;;;;4982192;28;20034;-74
2023/09/16 10:14:23;;;;;;;21.80;5.05;;;;;;;;;;4978577;28;20022;-72
2023/09/16 10:16:49;;;;;;;27.25;5.97;;;;;;;;;;4981536;28;20140;-72
2023/09/16 10:19:16;;;;;;;28.92;6.32;;;;;;;;;;4980954;28;20030;-72
2023/09/16 10:21:42;;;;;;;29.92;6.18;;;;;;;;;;4979425;28;20121;-72
2023/09/16 10:24:09;;;;;;;26.50;5.75;;;;;;;;;;4979874;28;20030;-72
2023/09/16 10:26:35;;;;;;;31.70;6.65;;;;;;;;;;4981800;28;20049;-72
2023/09/16 10:29:02;;;;;;;34.88;6.70;;;;;;;;;;4979677;28;20035;-72
2023/09/16 10:31:29;;;;;;;34.15;6.40;;;;;;;;;;4974963;28;20037;-72
2023/09/16 10:33:56;;;;;;;28.92;5.75;;;;;;;;;;4983363;28;20424;-72
2023/09/16 10:36:22;;;;;;;42.28;7.25;;;;;;;;;;4976586;28;20037;-72
2023/09/16 10:38:50;;;;;;;29.63;6.22;;;;;;;;;;4983201;28;20419;-72
2023/09/16 10:41:16;;;;;;;30.80;6.03;;;;;;;;;;4979517;28;20092;-72
2023/09/16 10:43:44;;;;;;;35.33;6.03;;;;;;;;;;4976461;28;20887;-72
2023/09/16 10:46:11;;;;;;;33.97;6.80;;;;;;;;;;4980434;28;20026;-72
2023/09/16 10:48:37;;;;;;;33.50;6.93;;;;;;;;;;4980716;28;20022;-72
2023/09/16 10:51:06;;;;;;;35.17;6.60;;;;;;;;;;4985394;28;20030;-73
2023/09/16 10:53:36;;;;;;;34.05;7.32;;;;;;;;;;4978352;28;20030;-72
2023/09/16 10:56:05;;;;;;;27.83;5.90;;;;;;;;;;4980111;28;20372;-71
2023/09/16 10:58:48;;;;;;;34.63;6.95;;;;;;;;;;4980593;28;20165;-72
2023/09/16 11:01:26;;;;;;;30.58;6.85;;;;;;;;;;4977927;28;20771;-71
2023/09/16 11:03:53;;;;;;;31.80;6.38;;;;;;;;;;4976613;28;20144;-71
2023/09/16 11:06:20;;;;;;;36.97;6.75;;;;;;;;;;4979460;28;20050;-71
2023/09/16 11:08:46;;;;;;;32.88;7.05;;;;;;;;;;4980425;28;20029;-71
2023/09/16 11:11:12;;;;;;;31.02;6.95;;;;;;;;;;4981118;28;20500;-72
2023/09/16 11:13:38;;;;;;;32.58;7.18;;;;;;;;;;4975913;28;20065;-72
2023/09/16 11:16:05;;;;;;;28.13;6.78;;;;;;;;;;4982223;28;20266;-72
2023/09/16 11:18:31;;;;;;;35.58;6.75;;;;;;;;;;4976860;28;20030;-72
2023/09/16 11:20:57;;;;;;;33.13;7.10;;;;;;;;;;4980235;28;20033;-71
2023/09/16 11:23:25;;;;;;;37.40;7.75;;;;;;;;;;4979267;28;20030;-71
2023/09/16 11:25:51;;;;;;;44.63;9.00;;;;;;;;;;4976963;28;20026;-72
2023/09/16 11:28:19;;;;;;;33.50;7.32;;;;;;;;;;4978701;28;20034;-72
2023/09/16 11:30:55;;;;;;;33.42;7.43;;;;;;;;;;4979389;28;20038;-72
2023/09/16 11:33:37;;;;;;;36.05;7.70;;;;;;;;;;4974756;28;20030;-71
2023/09/16 11:36:10;;;;;;;37.35;7.25;;;;;;;;;;4978555;28;20145;-72
2023/09/16 11:38:37;;;;;;;43.85;9.20;;;;;;;;;;4976583;28;20037;-72
2023/09/16 11:41:10;;;;;;;45.58;9.50;;;;;;;;;;4976615;28;20046;-73
2023/09/16 11:43:40;;;;;;;43.53;7.95;;;;;;;;;;4972427;28;20088;-72
2023/09/16 11:46:07;;;;;;;38.47;7.72;;;;;;;;;;4975027;28;20405;-72
2023/09/16 11:48:47;;;;;;;47.35;8.75;;;;;;;;;;4974906;28;20018;-72
2023/09/16 11:51:13;;;;;;;44.05;8.65;;;;;;;;;;4993659;28;20034;-72
2023/09/16 11:53:39;;;;;;;46.58;8.20;;;;;;;;;;4975545;28;20044;-72
2023/09/16 11:56:05;;;;;;;39.58;8.23;;;;;;;;;;4981897;28;20131;-72
2023/09/16 11:58:31;;;;;;;46.00;8.32;;;;;;;;;;4977415;28;20555;-73
2023/09/16 12:00:58;;;;;;;51.97;9.77;;;;;;;;;;4978390;28;20033;-73
2023/09/16 12:03:24;;;;;;;58.65;9.07;;;;;;;;;;4973484;28;20428;-72
2023/09/16 12:05:51;;;;;;;54.60;9.13;;;;;;;;;;4982301;28;20025;-72
2023/09/16 12:08:17;;;;;;;48.55;9.43;;;;;;;;;;4977800;28;20563;-73
2023/09/16 12:10:43;;;;;;;39.38;7.90;;;;;;;;;;4975634;28;20591;-72
2023/09/16 12:13:09;;;;;;;50.22;8.80;;;;;;;;;;4976986;28;20054;-73
2023/09/16 12:15:35;;;;;;;47.35;9.27;;;;;;;;;;4972797;28;20554;-73
2023/09/16 12:18:02;;;;;;;44.28;9.07;;;;;;;;;;4992156;28;20041;-73
2023/09/16 12:20:31;;;;;;;50.63;8.70;;;;;;;;;;4976241;28;20481;-73
2023/09/16 12:22:59;;;;;;;45.35;8.95;;;;;;;;;;4981505;28;20128;-73
2023/09/16 12:25:38;;;;;;;38.63;8.35;;;;;;;;;;4971146;28;20290;-72
2023/09/16 12:28:05;;;;;;;46.50;8.60;;;;;;;;;;4974639;28;20357;-72
2023/09/16 12:30:31;;;;;;;36.15;7.65;;;;;;;;;;4977926;28;20315;-72
2023/09/16 12:32:57;;;;;;;50.45;8.85;;;;;;;;;;4979606;28;20534;-72
2023/09/16 12:35:23;;;;;;;43.47;8.63;;;;;;;;;;4976240;28;20050;-72
2023/09/16 12:37:49;;;;;;;28.52;6.68;;;;;;;;;;4978803;28;20030;-73
2023/09/16 12:40:16;;;;;;;48.70;8.10;;;;;;;;;;4976663;28;20031;-73
2023/09/16 12:42:42;;;;;;;46.45;8.27;;;;;;;;;;4974961;28;20030;-72
2023/09/16 12:45:09;;;;;;;42.83;8.15;;;;;;;;;;4972745;28;20038;-72
2023/09/16 12:47:35;;;;;;;38.38;8.20;;;;;;;;;;4975136;28;20129;-72
2023/09/16 12:50:01;;;;;;;52.38;9.18;;;;;;;;;;4980341;28;20625;-74
2023/09/16 12:52:27;;;;;;;55.30;9.18;;;;;;;;;;4976361;28;20087;-72
2023/09/16 12:54:54;;;;;;;46.40;8.43;;;;;;;;;;4980179;28;20040;-72
2023/09/16 12:57:21;;;;;;;41.63;7.68;;;;;;;;;;4978854;28;20141;-72
2023/09/16 13:00:03;;;;;;;34.72;7.45;;;;;;;;;;4974219;28;20037;-72
2023/09/16 13:02:29;;;;;;;37.85;7.03;;;;;;;;;;4986033;28;20373;-72
2023/09/16 13:05:14;;;;;;;35.30;7.50;;;;;;;;;;4974205;28;20141;-72
2023/09/16 13:07:40;;;;;;;43.17;8.82;;;;;;;;;;4982084;28;20036;-72
2023/09/16 13:10:07;;;;;;;43.13;8.55;;;;;;;;;;4978965;28;20509;-72
2023/09/16 13:12:35;;;;;;;45.47;9.32;;;;;;;;;;4971801;28;20100;-72
2023/09/16 13:15:02;;;;;;;40.75;8.43;;;;;;;;;;4995678;28;20056;-72
2023/09/16 13:17:28;;;;;;;47.88;8.65;;;;;;;;;;4975493;28;20073;-73
2023/09/16 13:20:00;;;;;;;36.58;7.75;;;;;;;;;;4978538;28;20109;-72
2023/09/16 13:22:27;;;;;;;35.92;7.45;;;;;;;;;;4971006;28;20030;-72
2023/09/16 13:24:53;;;;;;;40.53;8.32;;;;;;;;;;4977496;28;20046;-72
2023/09/16 13:27:20;;;;;;;41.15;8.57;;;;;;;;;;4978692;28;20417;-72
2023/09/16 13:29:46;;;;;;;33.90;7.70;;;;;;;;;;4970351;28;20212;-72
2023/09/16 13:32:12;;;;;;;34.85;7.18;;;;;;;;;;4972932;28;20056;-72
2023/09/16 13:34:44;;;;;;;27.00;6.15;;;;;;;;;;4973997;28;20437;-71
2023/09/16 13:37:10;;;;;;;25.40;6.65;;;;;;;;;;4976590;28;20148;-72
2023/09/16 13:39:43;;;;;;;28.23;7.00;;;;;;;;;;4973025;28;20170;-72
2023/09/16 13:42:09;;;;;;;30.65;6.85;;;;;;;;;;4977211;28;20037;-71
2023/09/16 13:44:35;;;;;;;25.38;5.90;;;;;;;;;;4972445;28;20036;-73
2023/09/16 13:47:03;;;;;;;26.73;6.20;;;;;;;;;;4975614;28;20054;-71
2023/09/16 13:49:30;;;;;;;32.33;7.47;;;;;;;;;;4969212;28;20056;-71
2023/09/16 13:51:56;;;;;;;27.85;6.28;;;;;;;;;;4972501;28;20026;-72
2023/09/16 13:54:23;;;;;;;29.98;7.15;;;;;;;;;;4974615;28;20191;-72
2023/09/16 13:56:49;;;;;;;28.63;7.07;;;;;;;;;;4974076;28;20064;-72
2023/09/16 13:59:16;;;;;;;36.35;7.10;;;;;;;;;;4976374;28;20364;-74
2023/09/16 14:01:42;;;;;;;29.23;6.78;;;;;;;;;;4974158;28;20155;-73
2023/09/16 14:04:08;;;;;;;36.45;7.60;;;;;;;;;;4976197;28;20066;-73
2023/09/16 14:06:34;;;;;;;42.58;8.10;;;;;;;;;;4973475;28;20029;-72
2023/09/16 14:09:00;;;;;;;45.30;8.43;;;;;;;;;;4969455;28;20752;-73
2023/09/16 14:11:26;;;;;;;43.83;7.93;;;;;;;;;;4971463;28;20302;-72
2023/09/16 14:13:52;;;;;;;42.53;8.18;;;;;;;;;;4982798;28;20073;-73
2023/09/16 14:16:18;;;;;;;37.70;7.43;;;;;;;;;;4982212;28;20065;-73
2023/09/16 14:18:45;;;;;;;44.95;8.63;;;;;;;;;;4982147;28;20021;-73
2023/09/16 14:21:11;;;;;;;41.08;8.35;;;;;;;;;;4985898;28;20038;-73
2023/09/16 14:23:37;;;;;;;45.65;8.73;;;;;;;;;;4971581;28;20295;-73
2023/09/16 14:26:03;;;;;;;32.45;7.72;;;;;;;;;;4982440;28;20031;-72
2023/09/16 14:28:29;;;;;;;40.13;7.35;;;;;;;;;;4976981;28;20092;-72
2023/09/16 14:30:55;;;;;;;40.30;8.13;;;;;;;;;;4981685;28;20107;-71